Terminal Aerodrome Forecast
Issued by NWS

Home | Current Version | Previous Version | Graphics & Text | Print | Product List | Glossary On
Versions: 1 2 3 4 5 6 7 8 9 10 11 12 13 14 15 16 17 18 19 20 21 22 23 24 25
000
FTUS43 KBIS 302000 AAA
TAFJMS
TAF AMD
KJMS 302050Z 3021/3118 35015G24KT P6SM SCT020
     FM302200 35014KT P6SM SCT250
     FM310200 01005KT P6SM FEW250
     FM311300 14004KT P6SM FEW250
     FM311600 16009G20KT P6SM FEW240=

USA.gov is the U.S. government's official web portal to all federal, state and local government web resources and services.